Time;durP1;ratioP1;P1;durP2;ratioP2;P2;SDS_P1;SDS_P2;PMS_P1;PMS_P2;Temp;Humidity;BMP_temperature;BMP_pressure;BME280_temperature;BME280_humidity;BME280_pressure;Samples;Min_cycle;Max_cycle;Signal;HPM_P1;HPM_P2
2023/08/25 00:01:21;;;;;;;2.80;1.13;;;26.30;64.40;;;;;;5014408;28;20084;-71
2023/08/25 00:03:49;;;;;;;1.75;1.33;;;26.30;64.70;;;;;;5033235;28;20043;-71
2023/08/25 00:06:15;;;;;;;1.20;1.05;;;26.30;64.50;;;;;;5031617;28;20220;-71
2023/08/25 00:08:41;;;;;;;1.05;0.80;;;26.30;64.80;;;;;;5031753;28;20083;-71
2023/08/25 00:11:07;;;;;;;1.15;0.95;;;26.20;64.90;;;;;;5014199;28;20088;-72
2023/08/25 00:13:35;;;;;;;4.70;1.60;;;26.20;64.90;;;;;;5031797;28;20109;-71
2023/08/25 00:16:04;;;;;;;3.17;1.40;;;26.20;64.70;;;;;;5031516;28;20041;-71
2023/08/25 00:18:30;;;;;;;1.52;0.93;;;26.10;65.20;;;;;;5031713;28;20041;-71
2023/08/25 00:20:56;;;;;;;2.15;1.60;;;26.20;65.10;;;;;;5030738;28;20509;-71
2023/08/25 00:23:22;;;;;;;1.27;1.00;;;26.10;65.40;;;;;;5032812;28;20033;-71
2023/08/25 00:25:48;;;;;;;1.98;1.67;;;26.10;65.30;;;;;;5032489;28;20133;-71
2023/08/25 00:28:14;;;;;;;0.63;0.50;;;26.00;65.30;;;;;;5031518;28;20034;-72
2023/08/25 00:30:41;;;;;;;1.90;1.20;;;26.00;65.00;;;;;;5030284;28;20034;-71
2023/08/25 00:33:07;;;;;;;0.63;0.63;;;26.00;65.10;;;;;;5031530;28;20037;-71
2023/08/25 00:35:33;;;;;;;1.15;0.70;;;25.90;64.60;;;;;;5030525;28;20088;-72
2023/08/25 00:37:59;;;;;;;2.55;1.25;;;25.90;64.60;;;;;;5032621;28;20084;-71
2023/08/25 00:40:25;;;;;;;1.75;1.33;;;25.90;64.50;;;;;;5031346;28;20041;-71
2023/08/25 00:42:51;;;;;;;2.10;1.52;;;25.80;64.50;;;;;;5032581;28;20030;-71
2023/08/25 00:45:17;;;;;;;2.15;1.63;;;25.80;64.60;;;;;;5032427;28;20064;-72
2023/08/25 00:47:44;;;;;;;1.30;0.65;;;25.80;64.80;;;;;;5031224;28;20033;-71
2023/08/25 00:50:11;;;;;;;2.75;0.90;;;25.80;64.70;;;;;;5030176;28;20045;-71
2023/08/25 00:52:39;;;;;;;1.73;0.70;;;25.70;64.50;;;;;;5032346;28;20057;-70
2023/08/25 00:55:06;;;;;;;5.13;1.92;;;25.60;64.70;;;;;;5030847;28;20069;-71
2023/08/25 00:57:32;;;;;;;1.45;1.23;;;25.60;64.70;;;;;;5032191;28;20030;-71
2023/08/25 00:59:58;;;;;;;1.25;0.80;;;25.60;65.00;;;;;;5031021;28;20041;-71
2023/08/25 01:02:25;;;;;;;1.73;1.17;;;25.50;65.20;;;;;;5029903;28;20030;-71
2023/08/25 01:04:51;;;;;;;2.10;1.35;;;25.50;65.30;;;;;;5030896;28;20045;-71
2023/08/25 01:07:17;;;;;;;1.40;1.05;;;25.40;66.40;;;;;;5030488;28;20048;-71
2023/08/25 01:09:43;;;;;;;1.42;1.20;;;25.40;65.50;;;;;;5030556;28;20437;-71
2023/08/25 01:12:52;;;;;;;2.13;1.42;;;25.40;65.00;;;;;;5030043;28;20064;-71
2023/08/25 01:15:28;;;;;;;1.63;1.25;;;25.40;65.50;;;;;;5031651;28;20041;-72
2023/08/25 01:18:21;;;;;;;2.22;1.65;;;25.40;65.70;;;;;;5030835;28;20129;-72
2023/08/25 01:20:48;;;;;;;1.95;1.52;;;25.40;66.00;;;;;;5030728;28;20124;-71
2023/08/25 01:23:36;;;;;;;1.70;0.90;;;25.40;66.20;;;;;;5030732;28;20493;-71
2023/08/25 01:26:04;;;;;;;1.40;0.63;;;25.40;67.30;;;;;;5030236;28;20033;-71
2023/08/25 01:28:30;;;;;;;3.50;1.55;;;25.40;66.30;;;;;;5031775;28;20510;-71
2023/08/25 01:30:58;;;;;;;1.65;1.00;;;25.40;66.40;;;;;;5030973;28;20061;-71
2023/08/25 01:33:45;;;;;;;1.52;1.08;;;25.40;66.40;;;;;;5014336;28;20086;-71
2023/08/25 01:37:10;;;;;;;2.03;1.33;;;25.50;66.20;;;;;;5030051;28;20057;-71
2023/08/25 01:39:40;;;;;;;1.77;1.00;;;25.40;66.40;;;;;;5031885;28;20041;-71
2023/08/25 01:42:09;;;;;;;1.75;0.68;;;25.40;66.80;;;;;;5012916;28;20037;-71
2023/08/25 01:44:37;;;;;;;2.38;0.95;;;25.40;67.00;;;;;;5030257;28;20398;-71
2023/08/25 01:47:25;;;;;;;1.60;1.23;;;25.40;66.80;;;;;;5030098;28;20471;-71
2023/08/25 01:49:52;;;;;;;1.38;0.70;;;25.30;66.60;;;;;;5030174;28;20049;-72
2023/08/25 01:52:19;;;;;;;1.38;0.90;;;25.30;66.70;;;;;;5029320;28;20121;-71
2023/08/25 01:54:45;;;;;;;0.82;0.60;;;25.30;66.70;;;;;;5030246;28;20030;-71
2023/08/25 01:57:11;;;;;;;1.30;0.90;;;25.30;66.80;;;;;;5031132;28;20044;-71
2023/08/25 01:59:37;;;;;;;1.95;1.33;;;25.30;66.80;;;;;;5030094;28;20491;-71
2023/08/25 02:02:03;;;;;;;2.05;1.35;;;25.30;67.10;;;;;;5030561;28;20049;-71
2023/08/25 02:04:29;;;;;;;1.73;1.25;;;25.20;67.10;;;;;;5031823;28;20395;-71
2023/08/25 02:06:55;;;;;;;3.58;1.75;;;25.20;67.30;;;;;;5030972;28;20037;-71
2023/08/25 02:09:21;;;;;;;2.28;1.45;;;25.20;67.80;;;;;;5031097;28;20405;-71
2023/08/25 02:11:47;;;;;;;2.20;1.27;;;25.20;68.00;;;;;;5029041;28;20111;-71
2023/08/25 02:14:13;;;;;;;1.40;0.88;;;25.30;68.80;;;;;;5030172;28;20045;-71
2023/08/25 02:16:39;;;;;;;1.70;1.10;;;25.20;68.70;;;;;;5030623;28;20088;-71
2023/08/25 02:19:05;;;;;;;1.30;0.95;;;25.20;69.00;;;;;;5031338;28;20096;-71
2023/08/25 02:21:32;;;;;;;6.00;2.05;;;25.20;69.30;;;;;;5030275;28;20445;-71
2023/08/25 02:23:58;;;;;;;1.02;0.90;;;25.20;69.70;;;;;;5031125;28;20475;-71
2023/08/25 02:26:24;;;;;;;2.05;1.30;;;25.30;69.70;;;;;;5029470;28;20087;-71
2023/08/25 02:28:50;;;;;;;2.15;1.23;;;25.20;70.00;;;;;;5031111;28;20040;-71
2023/08/25 02:31:16;;;;;;;1.65;1.13;;;25.30;70.10;;;;;;5030189;28;20548;-71
2023/08/25 02:33:42;;;;;;;2.22;1.15;;;25.30;70.00;;;;;;5029868;28;20030;-71
2023/08/25 02:36:09;;;;;;;1.33;1.08;;;25.20;70.00;;;;;;5029372;28;20058;-71
2023/08/25 02:38:35;;;;;;;0.75;0.68;;;25.20;70.30;;;;;;5031018;28;20044;-72
2023/08/25 02:41:01;;;;;;;1.45;0.98;;;25.20;70.40;;;;;;5028776;28;20444;-71
2023/08/25 02:43:27;;;;;;;2.08;1.73;;;25.10;70.40;;;;;;5031087;28;20030;-71
2023/08/25 02:45:53;;;;;;;0.40;0.40;;;25.10;70.60;;;;;;5029447;28;20037;-71
2023/08/25 02:48:19;;;;;;;1.40;0.80;;;25.10;70.30;;;;;;5034732;28;20474;-71
2023/08/25 02:50:45;;;;;;;2.65;1.25;;;25.10;70.00;;;;;;5033657;28;20045;-71
2023/08/25 02:53:11;;;;;;;1.30;1.08;;;24.90;70.30;;;;;;5033443;28;20040;-72
2023/08/25 02:55:38;;;;;;;1.77;0.70;;;24.90;70.40;;;;;;5034498;28;20060;-71
2023/08/25 02:58:04;;;;;;;3.35;1.13;;;24.80;70.50;;;;;;5016771;28;20113;-71
2023/08/25 03:00:31;;;;;;;1.83;1.25;;;24.80;70.30;;;;;;5033560;28;20064;-71
2023/08/25 03:02:57;;;;;;;0.80;0.60;;;24.70;70.20;;;;;;5034512;28;20100;-71
2023/08/25 03:05:24;;;;;;;1.90;1.58;;;24.80;70.00;;;;;;5034189;28;20041;-71
2023/08/25 03:08:15;;;;;;;2.05;1.48;;;24.80;70.00;;;;;;5034220;28;20033;-71
2023/08/25 03:11:19;;;;;;;1.85;1.20;;;24.80;70.00;;;;;;5031823;28;20049;-71
2023/08/25 03:13:45;;;;;;;3.92;1.35;;;24.70;69.70;;;;;;5033095;28;20737;-71
2023/08/25 03:16:11;;;;;;;1.42;0.98;;;24.60;69.80;;;;;;5032646;28;20045;-71
2023/08/25 03:18:37;;;;;;;1.77;1.13;;;24.60;69.90;;;;;;5034075;28;20029;-71
2023/08/25 03:21:04;;;;;;;1.80;1.05;;;24.60;69.80;;;;;;5031821;28;20449;-71
2023/08/25 03:23:30;;;;;;;2.97;1.60;;;24.50;69.70;;;;;;5016112;28;20436;-71
2023/08/25 03:25:56;;;;;;;3.53;2.45;;;24.60;69.70;;;;;;5033749;28;20397;-71
2023/08/25 03:28:22;;;;;;;3.00;2.40;;;24.60;69.60;;;;;;5032677;28;20041;-71
2023/08/25 03:31:07;;;;;;;3.55;1.90;;;24.60;69.80;;;;;;5033102;28;20037;-71
2023/08/25 03:33:33;;;;;;;2.35;1.25;;;24.60;69.90;;;;;;5016348;28;20065;-71
2023/08/25 03:35:59;;;;;;;2.47;1.85;;;24.50;70.30;;;;;;5033410;28;20060;-71
2023/08/25 03:38:25;;;;;;;0.93;0.75;;;24.50;70.30;;;;;;5033947;28;20034;-71
2023/08/25 03:40:58;;;;;;;1.67;1.10;;;24.50;70.30;;;;;;5032781;28;20052;-71
2023/08/25 03:43:24;;;;;;;3.13;2.30;;;24.40;70.30;;;;;;5032422;28;20027;-70
2023/08/25 03:45:50;;;;;;;2.40;0.95;;;24.40;70.70;;;;;;5033672;28;20037;-71
2023/08/25 03:48:16;;;;;;;;;;;24.40;71.00;;;;;;5034120;28;20033;-71
2023/08/25 03:50:47;;;;;;;1.33;1.02;;;24.40;70.30;;;;;;5031217;28;20012;-71
2023/08/25 03:53:14;;;;;;;1.77;1.13;;;24.40;71.00;;;;;;5032417;28;20033;-71
2023/08/25 03:55:41;;;;;;;2.35;1.63;;;24.40;71.50;;;;;;5015244;28;20037;-71
2023/08/25 03:58:07;;;;;;;2.00;1.02;;;24.40;71.90;;;;;;5033170;28;20083;-71
2023/08/25 04:00:33;;;;;;;3.17;1.52;;;24.40;72.00;;;;;;5032516;28;20441;-71
2023/08/25 04:03:00;;;;;;;4.00;1.77;;;24.40;72.20;;;;;;5033812;28;20025;-71
2023/08/25 04:05:26;;;;;;;8.38;1.38;;;24.40;72.30;;;;;;5031749;28;20103;-71
2023/08/25 04:07:53;;;;;;;1.65;1.17;;;24.50;72.40;;;;;;5033244;28;20045;-71
2023/08/25 04:10:19;;;;;;;2.13;1.33;;;24.50;72.50;;;;;;5032095;28;20029;-71
2023/08/25 04:12:45;;;;;;;1.25;0.77;;;24.50;72.50;;;;;;5031733;28;20032;-71
2023/08/25 04:15:11;;;;;;;3.65;1.17;;;24.50;72.40;;;;;;5032756;28;20045;-71
2023/08/25 04:17:37;;;;;;;0.93;0.55;;;24.50;72.70;;;;;;5031680;28;20026;-71
2023/08/25 04:20:04;;;;;;;1.42;0.95;;;24.50;72.90;;;;;;5032425;28;20477;-71
2023/08/25 04:22:30;;;;;;;2.58;1.83;;;24.50;72.30;;;;;;5032628;28;20075;-71
2023/08/25 04:24:56;;;;;;;2.72;1.52;;;24.50;73.20;;;;;;5033129;28;20045;-71
2023/08/25 04:27:22;;;;;;;1.70;1.20;;;24.50;73.10;;;;;;5032911;28;20034;-71
2023/08/25 04:29:48;;;;;;;3.17;1.00;;;24.50;73.60;;;;;;5015327;28;20043;-71
2023/08/25 04:32:15;;;;;;;3.75;1.88;;;24.50;73.60;;;;;;5032443;28;20045;-71
2023/08/25 04:34:41;;;;;;;1.38;1.25;;;24.50;74.40;;;;;;5032013;28;20033;-71
2023/08/25 04:37:07;;;;;;;0.82;0.80;;;24.60;73.40;;;;;;5031338;28;20414;-70
2023/08/25 04:39:33;;;;;;;1.95;1.17;;;24.60;73.40;;;;;;5015053;28;20386;-71
2023/08/25 04:42:00;;;;;;;2.03;1.00;;;24.60;73.60;;;;;;5030513;28;20033;-71
2023/08/25 04:44:26;;;;;;;3.90;2.35;;;24.60;73.70;;;;;;5032628;28;20045;-71
2023/08/25 04:46:52;;;;;;;2.58;1.13;;;24.60;73.20;;;;;;5032101;28;20095;-71
2023/08/25 04:49:18;;;;;;;1.60;1.08;;;24.60;73.10;;;;;;5032479;28;20041;-71
2023/08/25 04:51:44;;;;;;;2.00;1.38;;;24.50;73.00;;;;;;5031136;28;20084;-71
2023/08/25 04:54:10;;;;;;;;;;;24.60;72.80;;;;;;5031852;28;20106;-70
2023/08/25 04:56:36;;;;;;;4.00;1.27;;;24.60;72.40;;;;;;5014129;28;20297;-71
2023/08/25 04:59:03;;;;;;;2.28;1.40;;;24.60;72.90;;;;;;5031120;28;20045;-71
2023/08/25 05:01:29;;;;;;;0.40;0.40;;;24.60;72.00;;;;;;5029752;28;20033;-71
2023/08/25 05:03:55;;;;;;;1.27;0.88;;;24.50;71.80;;;;;;5030854;28;20030;-71
2023/08/25 05:06:21;;;;;;;1.95;1.38;;;24.50;72.70;;;;;;5030260;28;20120;-71
2023/08/25 05:08:47;;;;;;;4.65;1.08;;;24.50;71.90;;;;;;5029960;28;20037;-70
2023/08/25 05:11:14;;;;;;;1.98;0.70;;;24.50;71.90;;;;;;5031170;28;20040;-71
2023/08/25 05:13:40;;;;;;;1.13;0.77;;;24.50;71.90;;;;;;5031929;28;20394;-70
2023/08/25 05:16:08;;;;;;;1.65;1.00;;;24.50;71.90;;;;;;5031915;28;20117;-71
2023/08/25 05:18:34;;;;;;;3.15;2.22;;;24.50;72.10;;;;;;5014164;28;20025;-71
2023/08/25 05:21:00;;;;;;;1.75;1.25;;;24.50;72.40;;;;;;5031106;28;20204;-71
2023/08/25 05:23:27;;;;;;;1.35;0.90;;;24.50;72.50;;;;;;5030440;28;20022;-71
2023/08/25 05:25:54;;;;;;;2.20;1.10;;;24.50;73.10;;;;;;5031609;28;20648;-71
2023/08/25 05:28:20;;;;;;;1.63;1.27;;;24.40;73.10;;;;;;5030418;28;20482;-71
2023/08/25 05:30:48;;;;;;;1.08;0.35;;;24.40;73.30;;;;;;5029386;28;20041;-71
2023/08/25 05:33:15;;;;;;;1.52;0.93;;;24.40;73.20;;;;;;5030740;28;20030;-71
2023/08/25 05:35:41;;;;;;;2.47;1.80;;;24.50;72.80;;;;;;5031154;28;20057;-71
2023/08/25 05:38:07;;;;;;;3.17;1.15;;;24.50;73.40;;;;;;5030462;28;20330;-70
2023/08/25 05:40:34;;;;;;;0.75;0.57;;;24.50;73.90;;;;;;5029266;28;20049;-71
2023/08/25 05:43:00;;;;;;;3.10;1.92;;;24.50;74.30;;;;;;5031529;28;20485;-71
2023/08/25 05:45:26;;;;;;;;;;;24.50;74.50;;;;;;5030588;28;20029;-71
2023/08/25 05:47:52;;;;;;;2.05;1.52;;;24.50;74.10;;;;;;5030253;28;20321;-71
2023/08/25 05:50:18;;;;;;;;;;;24.50;74.60;;;;;;5030707;28;20030;-71
2023/08/25 05:52:45;;;;;;;2.17;1.65;;;24.50;74.60;;;;;;5030278;28;19913;-70
2023/08/25 05:55:30;;;;;;;2.92;1.70;;;24.50;75.70;;;;;;5029718;28;20184;-71
2023/08/25 05:57:56;;;;;;;2.53;1.30;;;24.50;76.40;;;;;;5029985;28;20127;-71
2023/08/25 06:00:22;;;;;;;1.55;0.95;;;24.50;76.50;;;;;;5029116;28;20037;-71
2023/08/25 06:02:48;;;;;;;2.42;1.33;;;24.70;76.20;;;;;;5031279;28;20030;-71
2023/08/25 06:05:14;;;;;;;1.83;0.95;;;24.80;76.10;;;;;;5029601;28;20042;-71
2023/08/25 06:07:40;;;;;;;2.28;1.38;;;24.80;76.30;;;;;;5031268;28;20422;-71
2023/08/25 06:10:08;;;;;;;1.42;1.17;;;24.90;76.10;;;;;;5012731;28;20030;-71
2023/08/25 06:12:34;;;;;;;1.73;1.05;;;24.90;75.90;;;;;;5013626;28;20450;-70
2023/08/25 06:15:00;;;;;;;0.85;0.70;;;25.00;76.10;;;;;;5031454;28;20096;-71
2023/08/25 06:17:26;;;;;;;2.30;1.48;;;25.10;75.70;;;;;;5029704;28;20034;-71
2023/08/25 06:19:51;;;;;;;3.17;2.08;;;25.20;75.40;;;;;;5022570;28;20037;-71
2023/08/25 06:22:17;;;;;;;3.83;1.77;;;25.20;75.70;;;;;;5052743;28;20087;-71
2023/08/25 06:24:43;;;;;;;;;;;25.10;76.00;;;;;;5044564;28;20044;-71
2023/08/25 06:27:09;;;;;;;5.25;1.40;;;25.10;76.50;;;;;;5034470;28;19920;-71
2023/08/25 06:29:35;;;;;;;3.00;1.80;;;25.10;76.80;;;;;;5034760;28;20458;-71
2023/08/25 06:32:01;;;;;;;3.13;2.00;;;25.20;76.70;;;;;;5034067;28;20033;-71
2023/08/25 06:34:27;;;;;;;1.80;1.55;;;25.20;76.70;;;;;;5034749;28;20034;-71
2023/08/25 06:36:53;;;;;;;3.35;1.38;;;25.20;77.50;;;;;;5033129;28;20486;-71
2023/08/25 06:39:20;;;;;;;3.55;1.30;;;25.30;76.40;;;;;;5033612;28;20033;-71
2023/08/25 06:41:46;;;;;;;2.42;1.48;;;25.40;76.60;;;;;;5033861;28;20048;-71
2023/08/25 06:44:12;;;;;;;1.83;1.10;;;25.30;76.60;;;;;;5033557;28;20482;-71
2023/08/25 06:46:38;;;;;;;2.10;1.48;;;25.50;76.80;;;;;;5016718;28;20033;-71
2023/08/25 06:49:06;;;;;;;2.40;1.38;;;25.60;76.10;;;;;;5034589;28;20479;-71
2023/08/25 06:51:32;;;;;;;4.10;3.15;;;25.70;75.50;;;;;;5033419;28;20045;-70
2023/08/25 06:54:01;;;;;;;3.35;1.15;;;25.80;75.30;;;;;;5033470;28;20041;-71
2023/08/25 06:56:27;;;;;;;2.75;1.52;;;25.80;75.40;;;;;;5033968;28;20153;-71
2023/08/25 06:58:53;;;;;;;2.03;1.25;;;25.80;75.10;;;;;;5034364;28;20025;-71
2023/08/25 07:01:19;;;;;;;1.98;1.20;;;26.00;74.70;;;;;;5032350;28;20103;-71
2023/08/25 07:03:46;;;;;;;2.63;1.15;;;26.00;74.60;;;;;;5016532;28;20029;-71
2023/08/25 07:06:12;;;;;;;2.00;1.30;;;26.10;74.10;;;;;;5032830;28;20080;-71
2023/08/25 07:08:38;;;;;;;3.65;2.10;;;26.40;72.70;;;;;;5032951;28;20041;-70
2023/08/25 07:11:04;;;;;;;1.30;0.88;;;26.60;72.60;;;;;;5031974;28;20034;-71
2023/08/25 07:13:32;;;;;;;2.78;1.80;;;26.70;72.10;;;;;;5034796;28;20355;-72
2023/08/25 07:15:58;;;;;;;2.47;1.27;;;26.70;72.10;;;;;;5033601;28;20504;-72
2023/08/25 07:18:24;;;;;;;6.28;2.03;;;27.00;72.50;;;;;;5034123;28;20033;-72
2023/08/25 07:20:51;;;;;;;1.95;1.15;;;27.20;71.50;;;;;;5033256;28;20437;-72
2023/08/25 07:23:19;;;;;;;2.47;1.55;;;27.50;70.40;;;;;;5032909;28;20109;-72
2023/08/25 07:25:45;;;;;;;3.30;1.67;;;27.80;69.40;;;;;;5033272;28;20041;-73
2023/08/25 07:28:12;;;;;;;1.85;1.65;;;28.20;68.60;;;;;;5033458;28;20037;-73
2023/08/25 07:30:38;;;;;;;3.13;1.23;;;28.60;66.80;;;;;;5032613;28;20083;-73
2023/08/25 07:33:07;;;;;;;2.67;1.63;;;29.00;65.80;;;;;;5032034;28;20036;-73
2023/08/25 07:35:37;;;;;;;0.90;0.75;;;29.40;64.30;;;;;;5033053;28;20050;-72
2023/08/25 07:38:04;;;;;;;2.65;1.63;;;29.70;63.30;;;;;;5032747;28;20038;-72
2023/08/25 07:40:31;;;;;;;1.58;1.10;;;30.30;61.70;;;;;;5015034;28;20541;-73
2023/08/25 07:43:16;;;;;;;3.50;3.13;;;30.60;59.60;;;;;;5032293;28;20028;-73
2023/08/25 07:45:43;;;;;;;2.65;1.75;;;31.00;60.30;;;;;;5033385;28;20107;-73
2023/08/25 07:48:09;;;;;;;3.67;2.55;;;31.50;57.80;;;;;;5033746;28;20052;-73
2023/08/25 07:50:35;;;;;;;2.15;0.98;;;31.90;55.20;;;;;;5031338;28;20073;-73
2023/08/25 07:53:01;;;;;;;1.42;0.85;;;32.20;54.80;;;;;;5033553;28;20108;-72
2023/08/25 07:55:27;;;;;;;2.15;1.58;;;32.70;53.80;;;;;;5033068;28;20113;-72
2023/08/25 07:57:54;;;;;;;2.10;1.48;;;33.10;52.10;;;;;;5033529;28;20060;-72
2023/08/25 08:00:20;;;;;;;2.20;1.15;;;33.50;51.00;;;;;;5012797;28;20386;-73
2023/08/25 08:02:48;;;;;;;1.75;1.42;;;33.90;49.20;;;;;;5045493;28;20112;-72
2023/08/25 08:05:17;;;;;;;2.92;2.35;;;34.30;47.90;;;;;;5028259;28;20051;-73
2023/08/25 08:08:02;;;;;;;1.25;1.08;;;34.60;47.00;;;;;;5044862;28;20120;-73
2023/08/25 08:10:29;;;;;;;1.83;1.30;;;35.00;46.70;;;;;;5043757;28;21260;-73
2023/08/25 08:12:56;;;;;;;4.25;2.25;;;35.40;45.30;;;;;;5028136;28;20033;-73
2023/08/25 08:15:24;;;;;;;1.60;1.13;;;35.80;43.90;;;;;;5045763;28;20056;-73
2023/08/25 08:17:50;;;;;;;3.22;1.30;;;36.30;43.10;;;;;;5044813;28;20082;-73
2023/08/25 08:20:16;;;;;;;2.08;1.42;;;36.80;41.70;;;;;;5044120;28;20060;-73
2023/08/25 08:22:43;;;;;;;1.83;1.20;;;37.20;39.90;;;;;;5045244;28;20037;-73
2023/08/25 08:25:30;;;;;;;3.40;2.05;;;37.70;39.60;;;;;;5045670;28;20055;-73
2023/08/25 08:27:56;;;;;;;9.30;1.60;;;37.90;38.90;;;;;;5046715;28;20033;-73
2023/08/25 08:30:22;;;;;;;1.83;1.52;;;38.40;38.10;;;;;;5045950;28;20056;-73
2023/08/25 08:32:49;;;;;;;2.80;2.10;;;39.00;36.10;;;;;;5047117;28;20040;-74
2023/08/25 08:35:17;;;;;;;2.53;1.77;;;39.40;36.40;;;;;;5043820;28;20393;-73
2023/08/25 08:37:43;;;;;;;4.65;2.63;;;39.80;35.40;;;;;;5046141;28;20432;-73
2023/08/25 08:40:10;;;;;;;1.92;1.10;;;40.20;34.60;;;;;;5026855;28;20047;-73
2023/08/25 08:42:37;;;;;;;3.08;1.65;;;40.60;32.90;;;;;;5027774;28;20048;-73
2023/08/25 08:45:24;;;;;;;3.03;2.22;;;41.00;32.80;;;;;;5043043;28;20442;-73
2023/08/25 08:47:51;;;;;;;2.50;1.48;;;41.50;32.50;;;;;;5044594;28;20035;-73
2023/08/25 08:50:18;;;;;;;3.58;2.00;;;41.70;30.70;;;;;;5043224;28;20036;-74
2023/08/25 08:52:47;;;;;;;2.78;1.73;;;41.80;30.30;;;;;;5027295;28;20025;-73
2023/08/25 08:55:15;;;;;;;1.77;1.05;;;42.10;30.40;;;;;;5044767;28;20055;-73
2023/08/25 08:57:43;;;;;;;2.55;1.92;;;42.40;29.90;;;;;;5027276;28;20025;-74
2023/08/25 09:00:13;;;;;;;1.92;1.23;;;42.90;29.50;;;;;;5044507;28;20047;-74
2023/08/25 09:02:43;;;;;;;2.80;2.38;;;43.50;28.90;;;;;;5045649;28;20037;-73
2023/08/25 09:05:12;;;;;;;2.45;2.03;;;44.10;28.30;;;;;;5045956;28;20052;-73
2023/08/25 09:07:39;;;;;;;3.55;2.47;;;44.50;27.20;;;;;;5045327;28;20029;-73
2023/08/25 09:10:05;;;;;;;2.58;2.00;;;44.90;26.90;;;;;;5043077;28;20049;-73
2023/08/25 09:12:32;;;;;;;3.50;3.10;;;44.90;26.10;;;;;;5044845;28;20025;-73
2023/08/25 09:14:58;;;;;;;2.42;1.80;;;45.30;26.30;;;;;;5045183;28;20323;-74
2023/08/25 09:17:24;;;;;;;1.90;1.63;;;45.70;25.80;;;;;;5044910;28;20548;-74
2023/08/25 09:19:50;;;;;;;2.47;1.65;;;46.00;25.60;;;;;;5042062;28;20041;-73
2023/08/25 09:22:17;;;;;;;2.38;1.85;;;46.40;25.30;;;;;;5050665;28;20410;-73
2023/08/25 09:24:44;;;;;;;2.72;2.25;;;46.90;24.50;;;;;;5029373;28;20065;-73
2023/08/25 09:27:29;;;;;;;2.67;2.30;;;46.80;23.20;;;;;;5034060;28;20075;-73
2023/08/25 09:30:14;;;;;;;2.88;2.42;;;46.90;23.70;;;;;;5043480;28;20512;-74
2023/08/25 09:32:40;;;;;;;1.83;1.27;;;47.20;23.60;;;;;;5045095;28;20445;-74
2023/08/25 09:35:28;;;;;;;3.50;1.70;;;47.80;23.20;;;;;;5043334;28;20069;-73
2023/08/25 09:37:54;;;;;;;2.40;2.17;;;48.10;23.00;;;;;;5035259;28;20037;-73
2023/08/25 09:40:20;;;;;;;1.85;1.35;;;48.40;22.60;;;;;;5026814;28;20050;-73
2023/08/25 09:42:46;;;;;;;2.40;2.13;;;48.70;22.30;;;;;;5023352;28;20037;-73
2023/08/25 09:45:13;;;;;;;3.35;2.55;;;49.00;22.30;;;;;;5023129;28;20413;-73
2023/08/25 09:47:41;;;;;;;3.60;2.95;;;49.40;21.90;;;;;;5006814;28;20482;-73
2023/08/25 09:50:30;;;;;;;1.98;1.63;;;49.60;21.40;;;;;;5023959;28;20045;-73
2023/08/25 09:52:57;;;;;;;2.45;2.25;;;49.60;21.20;;;;;;5025056;28;20124;-73
2023/08/25 09:55:23;;;;;;;2.28;1.85;;;50.00;21.20;;;;;;5033231;28;20052;-73
2023/08/25 09:57:51;;;;;;;4.68;3.70;;;50.10;21.10;;;;;;5047376;28;20029;-73
2023/08/25 10:00:19;;;;;;;5.80;2.53;;;50.40;20.40;;;;;;5046365;28;20494;-74
2023/08/25 10:02:47;;;;;;;2.33;1.92;;;50.60;20.10;;;;;;5045718;28;20051;-73
2023/08/25 10:05:14;;;;;;;4.55;3.67;;;50.80;19.50;;;;;;5032857;28;20033;-73
2023/08/25 10:07:43;;;;;;;2.85;2.20;;;51.00;19.70;;;;;;5011139;28;20043;-73
2023/08/25 10:10:10;;;;;;;3.08;2.53;;;51.40;19.20;;;;;;5021842;28;20040;-73
2023/08/25 10:12:38;;;;;;;2.10;1.90;;;51.80;18.60;;;;;;5047345;28;20029;-73
2023/08/25 10:15:08;;;;;;;3.53;2.72;;;52.00;18.60;;;;;;5030268;28;20056;-73
2023/08/25 10:17:36;;;;;;;3.60;2.80;;;52.30;18.80;;;;;;5047451;28;20024;-73
2023/08/25 10:20:07;;;;;;;3.10;2.80;;;52.50;18.30;;;;;;5048353;28;20047;-73
2023/08/25 10:22:35;;;;;;;3.25;2.55;;;52.90;18.10;;;;;;5046336;28;20049;-73
2023/08/25 10:25:07;;;;;;;2.47;2.08;;;53.20;18.00;;;;;;5046590;28;20041;-73
2023/08/25 10:27:34;;;;;;;2.55;2.30;;;53.30;17.80;;;;;;5048409;28;20044;-73
2023/08/25 10:30:01;;;;;;;5.55;3.13;;;53.30;17.70;;;;;;5065105;28;20079;-73
2023/08/25 10:33:23;;;;;;;7.05;6.38;;;53.70;17.50;;;;;;5047288;28;20094;-73
2023/08/25 10:35:49;;;;;;;2.97;2.45;;;53.90;17.10;;;;;;5064520;28;20060;-73
2023/08/25 10:38:34;;;;;;;4.30;3.85;;;54.40;16.80;;;;;;5031776;28;20028;-73
2023/08/25 10:41:14;;;;;;;3.42;2.78;;;54.30;17.40;;;;;;5059736;28;20048;-73
2023/08/25 10:43:45;;;;;;;17.77;3.33;;;54.40;16.90;;;;;;5049364;28;20048;-73
2023/08/25 10:46:11;;;;;;;4.07;3.53;;;54.90;16.60;;;;;;5048466;28;20048;-73
2023/08/25 10:48:38;;;;;;;4.20;3.80;;;55.20;16.70;;;;;;5029077;28;20138;-73
2023/08/25 10:51:27;;;;;;;4.13;3.22;;;55.20;16.10;;;;;;5040899;28;20143;-73
2023/08/25 10:53:54;;;;;;;3.65;3.35;;;55.00;16.40;;;;;;5045983;28;20115;-73
2023/08/25 10:56:23;;;;;;;3.90;3.53;;;55.50;16.10;;;;;;5042224;28;20036;-73
2023/08/25 10:59:09;;;;;;;4.78;4.38;;;55.80;16.30;;;;;;5065103;28;20041;-73
2023/08/25 11:01:57;;;;;;;4.88;4.47;;;56.20;15.60;;;;;;5046798;28;20047;-73
2023/08/25 11:04:45;;;;;;;4.70;4.20;;;56.40;15.70;;;;;;5060650;28;20068;-73
2023/08/25 11:07:51;;;;;;;4.25;3.85;;;56.80;15.20;;;;;;5044231;28;20363;-73
2023/08/25 11:10:22;;;;;;;3.95;3.65;;;57.10;15.20;;;;;;5026988;28;20074;-73
2023/08/25 11:12:52;;;;;;;5.00;4.60;;;57.20;15.00;;;;;;5042785;28;20041;-73
2023/08/25 11:15:19;;;;;;;4.70;4.30;;;57.20;14.70;;;;;;5045288;28;20059;-73
2023/08/25 11:18:04;;;;;;;6.00;5.50;;;57.20;14.90;;;;;;5046674;28;20349;-73
2023/08/25 11:20:30;;;;;;;5.57;5.07;;;57.30;14.20;;;;;;5045445;28;20094;-73
2023/08/25 11:22:58;;;;;;;5.25;4.85;;;57.60;14.20;;;;;;5045863;28;20033;-73
2023/08/25 11:25:43;;;;;;;5.15;4.75;;;57.80;13.60;;;;;;5027532;28;20036;-73
2023/08/25 11:28:10;;;;;;;5.38;4.97;;;58.20;13.60;;;;;;5040856;28;20045;-73
2023/08/25 11:30:39;;;;;;;6.55;6.05;;;58.30;13.90;;;;;;5044166;28;20033;-73
2023/08/25 11:33:05;;;;;;;6.22;5.72;;;58.60;13.40;;;;;;5046047;28;20029;-73
2023/08/25 11:35:31;;;;;;;6.80;6.30;;;58.80;13.40;;;;;;5044847;28;20075;-73
2023/08/25 11:37:57;;;;;;;6.15;5.53;;;58.50;13.40;;;;;;5031609;28;20052;-73
2023/08/25 11:40:23;;;;;;;5.47;5.05;;;58.40;13.20;;;;;;5043008;28;20548;-73
2023/08/25 11:42:51;;;;;;;6.07;5.57;;;58.60;13.60;;;;;;5043524;28;20037;-73
2023/08/25 11:45:18;;;;;;;6.63;6.13;;;59.00;13.50;;;;;;5037585;28;20516;-73
2023/08/25 11:47:44;;;;;;;6.43;5.93;;;58.90;12.70;;;;;;5046964;28;20037;-73
2023/08/25 11:50:10;;;;;;;6.80;6.30;;;58.80;13.20;;;;;;5046299;28;20041;-73
2023/08/25 11:52:36;;;;;;;6.18;5.68;;;59.00;13.60;;;;;;5045642;28;20485;-73
2023/08/25 11:55:02;;;;;;;7.28;6.78;;;59.20;12.80;;;;;;5025026;28;20148;-72
2023/08/25 11:57:50;;;;;;;6.88;6.38;;;59.20;13.30;;;;;;5045238;28;20099;-72
2023/08/25 12:00:17;;;;;;;8.80;8.10;;;59.60;13.10;;;;;;5042620;28;20124;-72
2023/08/25 12:02:47;;;;;;;7.30;6.70;;;59.80;12.40;;;;;;5025458;28;20040;-72
2023/08/25 12:05:13;;;;;;;8.10;7.50;;;59.80;12.60;;;;;;5044756;28;20072;-72
2023/08/25 12:07:41;;;;;;;8.07;7.57;;;59.80;12.70;;;;;;5028273;28;20033;-72
2023/08/25 12:10:08;;;;;;;8.68;8.07;;;59.90;12.20;;;;;;5027666;28;20453;-72
2023/08/25 12:12:54;;;;;;;8.73;8.13;;;59.90;12.10;;;;;;5036553;28;20033;-72
2023/08/25 12:15:20;;;;;;;8.93;8.32;;;60.10;12.20;;;;;;5037898;28;20044;-73
2023/08/25 12:17:47;;;;;;;8.63;8.02;;;60.20;12.40;;;;;;5042255;28;20033;-72
2023/08/25 12:20:32;;;;;;;7.72;7.22;;;60.40;12.20;;;;;;5044957;28;20045;-73
2023/08/25 12:23:02;;;;;;;9.05;8.45;;;60.30;12.50;;;;;;5047004;28;20086;-72
2023/08/25 12:25:31;;;;;;;8.00;7.50;;;60.20;12.40;;;;;;5044596;28;20037;-72
2023/08/25 12:27:59;;;;;;;8.32;7.82;;;59.60;12.00;;;;;;5042292;28;20036;-72
2023/08/25 12:30:25;;;;;;;8.73;8.13;;;59.80;11.80;;;;;;5038456;28;20045;-72
2023/08/25 12:32:51;;;;;;;7.47;6.97;;;60.00;12.10;;;;;;5044013;28;20162;-72
2023/08/25 12:35:19;;;;;;;7.68;7.18;;;59.80;11.50;;;;;;5043988;28;20064;-72
2023/08/25 12:37:45;;;;;;;9.18;8.57;;;59.80;12.40;;;;;;5044377;28;20053;-72
2023/08/25 12:40:11;;;;;;;8.40;7.80;;;59.90;11.50;;;;;;5044183;28;20458;-73
2023/08/25 12:42:37;;;;;;;8.48;7.97;;;60.40;11.30;;;;;;5045851;28;20056;-72
2023/08/25 12:45:05;;;;;;;9.07;8.48;;;60.10;11.80;;;;;;5037317;28;20036;-72
2023/08/25 12:47:31;;;;;;;8.55;7.95;;;60.30;11.80;;;;;;5044772;28;20079;-72
2023/08/25 12:49:57;;;;;;;8.48;7.93;;;60.60;11.80;;;;;;5044866;28;20440;-72
2023/08/25 12:52:23;;;;;;;10.38;9.68;;;60.90;11.40;;;;;;5042048;28;20048;-72
2023/08/25 12:54:49;;;;;;;9.63;9.02;;;61.20;11.60;;;;;;5024288;28;20091;-72
2023/08/25 12:57:15;;;;;;;8.27;7.78;;;61.00;11.80;;;;;;5025889;28;20422;-72